sensor_id;sensor_type;location;lat;lon;timestamp;pressure;altitude;pressure_sealevel;temperature
25514;BMP180;48128;54.242;10.280;2022-07-06T00:00:07;101720.00;;;14.00
25514;BMP180;48128;54.242;10.280;2022-07-06T00:02:36;101713.00;;;13.90
25514;BMP180;48128;54.242;10.280;2022-07-06T00:05:04;101708.00;;;13.90
25514;BMP180;48128;54.242;10.280;2022-07-06T00:07:31;101708.00;;;13.80
25514;BMP180;48128;54.242;10.280;2022-07-06T00:09:58;101710.00;;;13.80
25514;BMP180;48128;54.242;10.280;2022-07-06T00:12:25;101708.00;;;13.70
25514;BMP180;48128;54.242;10.280;2022-07-06T00:14:52;101700.00;;;13.70
25514;BMP180;48128;54.242;10.280;2022-07-06T00:17:19;101700.00;;;13.70
25514;BMP180;48128;54.242;10.280;2022-07-06T00:19:46;101697.00;;;13.70
25514;BMP180;48128;54.242;10.280;2022-07-06T00:22:13;101692.00;;;13.70
25514;BMP180;48128;54.242;10.280;2022-07-06T00:24:40;101696.00;;;13.70
25514;BMP180;48128;54.242;10.280;2022-07-06T00:27:07;101706.00;;;13.70
25514;BMP180;48128;54.242;10.280;2022-07-06T00:29:34;101705.00;;;13.70
25514;BMP180;48128;54.242;10.280;2022-07-06T00:32:01;101708.00;;;13.70
25514;BMP180;48128;54.242;10.280;2022-07-06T00:34:28;101700.00;;;13.70
25514;BMP180;48128;54.242;10.280;2022-07-06T00:36:55;101702.00;;;13.70
25514;BMP180;48128;54.242;10.280;2022-07-06T00:39:22;101700.00;;;13.70
25514;BMP180;48128;54.242;10.280;2022-07-06T00:41:50;101695.00;;;13.70
25514;BMP180;48128;54.242;10.280;2022-07-06T00:44:17;101697.00;;;13.60
25514;BMP180;48128;54.242;10.280;2022-07-06T00:46:44;101699.00;;;13.70
25514;BMP180;48128;54.242;10.280;2022-07-06T00:49:11;101702.00;;;13.60
25514;BMP180;48128;54.242;10.280;2022-07-06T00:51:58;101717.00;;;13.60
25514;BMP180;48128;54.242;10.280;2022-07-06T00:54:28;101709.00;;;13.50
25514;BMP180;48128;54.242;10.280;2022-07-06T00:56:58;101711.00;;;13.50
25514;BMP180;48128;54.242;10.280;2022-07-06T00:59:28;101715.00;;;13.50
25514;BMP180;48128;54.242;10.280;2022-07-06T01:01:55;101703.00;;;13.50
25514;BMP180;48128;54.242;10.280;2022-07-06T01:04:23;101711.00;;;13.40
25514;BMP180;48128;54.242;10.280;2022-07-06T01:06:50;101705.00;;;13.40
25514;BMP180;48128;54.242;10.280;2022-07-06T01:09:17;101703.00;;;13.40
25514;BMP180;48128;54.242;10.280;2022-07-06T01:11:44;101710.00;;;13.40
25514;BMP180;48128;54.242;10.280;2022-07-06T01:14:12;101699.00;;;13.40
25514;BMP180;48128;54.242;10.280;2022-07-06T01:16:40;101697.00;;;13.50
25514;BMP180;48128;54.242;10.280;2022-07-06T01:19:08;101698.00;;;13.50
25514;BMP180;48128;54.242;10.280;2022-07-06T01:21:38;101699.00;;;13.50
25514;BMP180;48128;54.242;10.280;2022-07-06T01:24:05;101708.00;;;13.50
25514;BMP180;48128;54.242;10.280;2022-07-06T01:26:32;101695.00;;;13.50
25514;BMP180;48128;54.242;10.280;2022-07-06T01:28:59;101699.00;;;13.50
25514;BMP180;48128;54.242;10.280;2022-07-06T01:31:26;101694.00;;;13.40
25514;BMP180;48128;54.242;10.280;2022-07-06T01:33:56;101694.00;;;13.50
25514;BMP180;48128;54.242;10.280;2022-07-06T01:36:23;101703.00;;;13.40
25514;BMP180;48128;54.242;10.280;2022-07-06T01:38:55;101692.00;;;13.40
25514;BMP180;48128;54.242;10.280;2022-07-06T01:41:26;101692.00;;;13.40
25514;BMP180;48128;54.242;10.280;2022-07-06T01:43:53;101697.00;;;13.40
25514;BMP180;48128;54.242;10.280;2022-07-06T01:46:20;101684.00;;;13.40
25514;BMP180;48128;54.242;10.280;2022-07-06T01:48:47;101702.00;;;13.40
25514;BMP180;48128;54.242;10.280;2022-07-06T01:51:14;101688.00;;;13.40
25514;BMP180;48128;54.242;10.280;2022-07-06T01:53:42;101685.00;;;13.40
25514;BMP180;48128;54.242;10.280;2022-07-06T01:56:10;101690.00;;;13.40
25514;BMP180;48128;54.242;10.280;2022-07-06T01:58:38;101695.00;;;13.40
25514;BMP180;48128;54.242;10.280;2022-07-06T02:01:09;101684.00;;;13.40
25514;BMP180;48128;54.242;10.280;2022-07-06T02:03:37;101694.00;;;13.40
25514;BMP180;48128;54.242;10.280;2022-07-06T02:06:06;101689.00;;;13.40
25514;BMP180;48128;54.242;10.280;2022-07-06T02:08:34;101685.00;;;13.40
25514;BMP180;48128;54.242;10.280;2022-07-06T02:11:05;101689.00;;;13.40
25514;BMP180;48128;54.242;10.280;2022-07-06T02:13:36;101689.00;;;13.40
25514;BMP180;48128;54.242;10.280;2022-07-06T02:16:04;101694.00;;;13.40
25514;BMP180;48128;54.242;10.280;2022-07-06T02:18:31;101687.00;;;13.40
25514;BMP180;48128;54.242;10.280;2022-07-06T02:20:58;101697.00;;;13.40
25514;BMP180;48128;54.242;10.280;2022-07-06T02:23:25;101691.00;;;13.30
25514;BMP180;48128;54.242;10.280;2022-07-06T02:25:53;101691.00;;;13.30
25514;BMP180;48128;54.242;10.280;2022-07-06T02:28:19;101689.00;;;13.30
25514;BMP180;48128;54.242;10.280;2022-07-06T02:30:47;101695.00;;;13.30
25514;BMP180;48128;54.242;10.280;2022-07-06T02:33:14;101685.00;;;13.30
25514;BMP180;48128;54.242;10.280;2022-07-06T02:35:41;101687.00;;;13.30
25514;BMP180;48128;54.242;10.280;2022-07-06T02:38:10;101691.00;;;13.20
25514;BMP180;48128;54.242;10.280;2022-07-06T02:40:37;101686.00;;;13.20
25514;BMP180;48128;54.242;10.280;2022-07-06T02:43:05;101697.00;;;13.20
25514;BMP180;48128;54.242;10.280;2022-07-06T02:45:32;101690.00;;;13.10
25514;BMP180;48128;54.242;10.280;2022-07-06T02:47:59;101685.00;;;13.10
25514;BMP180;48128;54.242;10.280;2022-07-06T02:50:26;101689.00;;;13.10
25514;BMP180;48128;54.242;10.280;2022-07-06T02:52:53;101693.00;;;13.10
25514;BMP180;48128;54.242;10.280;2022-07-06T02:55:22;101685.00;;;13.10
25514;BMP180;48128;54.242;10.280;2022-07-06T02:57:49;101690.00;;;13.10
25514;BMP180;48128;54.242;10.280;2022-07-06T03:00:16;101698.00;;;13.10
25514;BMP180;48128;54.242;10.280;2022-07-06T03:02:43;101709.00;;;13.10
25514;BMP180;48128;54.242;10.280;2022-07-06T03:05:10;101706.00;;;13.10
25514;BMP180;48128;54.242;10.280;2022-07-06T03:07:37;101712.00;;;13.10
25514;BMP180;48128;54.242;10.280;2022-07-06T03:10:05;101722.00;;;13.10
25514;BMP180;48128;54.242;10.280;2022-07-06T03:12:33;101715.00;;;13.10
25514;BMP180;48128;54.242;10.280;2022-07-06T03:15:00;101697.00;;;13.10
25514;BMP180;48128;54.242;10.280;2022-07-06T03:17:27;101708.00;;;13.00
25514;BMP180;48128;54.242;10.280;2022-07-06T03:19:54;101698.00;;;13.00
25514;BMP180;48128;54.242;10.280;2022-07-06T03:22:21;101687.00;;;13.00
25514;BMP180;48128;54.242;10.280;2022-07-06T03:24:48;101682.00;;;13.00
25514;BMP180;48128;54.242;10.280;2022-07-06T03:27:16;101681.00;;;13.00
25514;BMP180;48128;54.242;10.280;2022-07-06T03:29:43;101671.00;;;12.90
25514;BMP180;48128;54.242;10.280;2022-07-06T03:32:10;101676.00;;;13.00
25514;BMP180;48128;54.242;10.280;2022-07-06T03:34:37;101679.00;;;13.00
25514;BMP180;48128;54.242;10.280;2022-07-06T03:37:04;101684.00;;;13.00
25514;BMP180;48128;54.242;10.280;2022-07-06T03:39:32;101682.00;;;13.00
25514;BMP180;48128;54.242;10.280;2022-07-06T03:41:59;101682.00;;;13.00
25514;BMP180;48128;54.242;10.280;2022-07-06T03:44:26;101694.00;;;13.00
25514;BMP180;48128;54.242;10.280;2022-07-06T03:46:53;101690.00;;;13.00
25514;BMP180;48128;54.242;10.280;2022-07-06T03:49:22;101679.00;;;13.00
25514;BMP180;48128;54.242;10.280;2022-07-06T03:51:54;101689.00;;;13.00
25514;BMP180;48128;54.242;10.280;2022-07-06T03:54:21;101707.00;;;13.00
25514;BMP180;48128;54.242;10.280;2022-07-06T03:56:48;101709.00;;;13.10
25514;BMP180;48128;54.242;10.280;2022-07-06T03:59:15;101694.00;;;13.10
25514;BMP180;48128;54.242;10.280;2022-07-06T04:01:42;101698.00;;;13.20
25514;BMP180;48128;54.242;10.280;2022-07-06T04:04:09;101701.00;;;13.20
25514;BMP180;48128;54.242;10.280;2022-07-06T04:06:36;101689.00;;;13.20
25514;BMP180;48128;54.242;10.280;2022-07-06T04:09:03;101694.00;;;13.30
25514;BMP180;48128;54.242;10.280;2022-07-06T04:11:30;101690.00;;;13.30
25514;BMP180;48128;54.242;10.280;2022-07-06T04:13:57;101699.00;;;13.30
25514;BMP180;48128;54.242;10.280;2022-07-06T04:16:24;101692.00;;;13.30
25514;BMP180;48128;54.242;10.280;2022-07-06T04:18:51;101701.00;;;13.40
25514;BMP180;48128;54.242;10.280;2022-07-06T04:21:18;101691.00;;;13.40
25514;BMP180;48128;54.242;10.280;2022-07-06T04:23:45;101691.00;;;13.40
25514;BMP180;48128;54.242;10.280;2022-07-06T04:26:12;101709.00;;;13.50
25514;BMP180;48128;54.242;10.280;2022-07-06T04:28:39;101705.00;;;13.50
25514;BMP180;48128;54.242;10.280;2022-07-06T04:31:06;101713.00;;;13.50
25514;BMP180;48128;54.242;10.280;2022-07-06T04:33:34;101705.00;;;13.50
25514;BMP180;48128;54.242;10.280;2022-07-06T04:36:01;101694.00;;;13.50
25514;BMP180;48128;54.242;10.280;2022-07-06T04:38:28;101704.00;;;13.50
25514;BMP180;48128;54.242;10.280;2022-07-06T04:40:55;101694.00;;;13.50
25514;BMP180;48128;54.242;10.280;2022-07-06T04:43:22;101708.00;;;13.70
25514;BMP180;48128;54.242;10.280;2022-07-06T04:45:49;101719.00;;;13.70
25514;BMP180;48128;54.242;10.280;2022-07-06T04:48:16;101720.00;;;13.70
25514;BMP180;48128;54.242;10.280;2022-07-06T04:50:43;101716.00;;;13.70
25514;BMP180;48128;54.242;10.280;2022-07-06T04:53:10;101732.00;;;13.70
25514;BMP180;48128;54.242;10.280;2022-07-06T04:55:37;101724.00;;;13.80
25514;BMP180;48128;54.242;10.280;2022-07-06T04:58:04;101732.00;;;13.90
25514;BMP180;48128;54.242;10.280;2022-07-06T05:00:31;101730.00;;;14.10
25514;BMP180;48128;54.242;10.280;2022-07-06T05:02:58;101731.00;;;14.20
25514;BMP180;48128;54.242;10.280;2022-07-06T05:05:25;101736.00;;;14.20
25514;BMP180;48128;54.242;10.280;2022-07-06T05:07:52;101740.00;;;14.20
25514;BMP180;48128;54.242;10.280;2022-07-06T05:10:19;101743.00;;;14.20
25514;BMP180;48128;54.242;10.280;2022-07-06T05:12:46;101750.00;;;14.30
25514;BMP180;48128;54.242;10.280;2022-07-06T05:15:13;101753.00;;;14.30
25514;BMP180;48128;54.242;10.280;2022-07-06T05:17:40;101748.00;;;14.30
25514;BMP180;48128;54.242;10.280;2022-07-06T05:20:07;101757.00;;;14.40
25514;BMP180;48128;54.242;10.280;2022-07-06T05:22:34;101752.00;;;14.40
25514;BMP180;48128;54.242;10.280;2022-07-06T05:25:09;101762.00;;;14.40
25514;BMP180;48128;54.242;10.280;2022-07-06T05:27:36;101743.00;;;14.50
25514;BMP180;48128;54.242;10.280;2022-07-06T05:30:04;101762.00;;;14.60
25514;BMP180;48128;54.242;10.280;2022-07-06T05:32:31;101763.00;;;14.60
25514;BMP180;48128;54.242;10.280;2022-07-06T05:34:58;101759.00;;;14.60
25514;BMP180;48128;54.242;10.280;2022-07-06T05:37:45;101772.00;;;14.50
25514;BMP180;48128;54.242;10.280;2022-07-06T05:40:12;101776.00;;;14.50
25514;BMP180;48128;54.242;10.280;2022-07-06T05:42:39;101766.00;;;14.60
25514;BMP180;48128;54.242;10.280;2022-07-06T05:45:07;101787.00;;;14.60
25514;BMP180;48128;54.242;10.280;2022-07-06T05:47:34;101780.00;;;14.60
25514;BMP180;48128;54.242;10.280;2022-07-06T05:50:19;101802.00;;;14.60
25514;BMP180;48128;54.242;10.280;2022-07-06T05:52:58;101801.00;;;14.60
25514;BMP180;48128;54.242;10.280;2022-07-06T05:55:32;101809.00;;;14.70
25514;BMP180;48128;54.242;10.280;2022-07-06T05:57:59;101810.00;;;14.70
25514;BMP180;48128;54.242;10.280;2022-07-06T06:00:27;101807.00;;;14.70
25514;BMP180;48128;54.242;10.280;2022-07-06T06:02:54;101785.00;;;14.80
25514;BMP180;48128;54.242;10.280;2022-07-06T06:05:22;101776.00;;;14.90
25514;BMP180;48128;54.242;10.280;2022-07-06T06:07:51;101779.00;;;15.00
25514;BMP180;48128;54.242;10.280;2022-07-06T06:10:20;101805.00;;;14.90
25514;BMP180;48128;54.242;10.280;2022-07-06T06:12:48;101801.00;;;15.00
25514;BMP180;48128;54.242;10.280;2022-07-06T06:15:16;101802.00;;;15.10
25514;BMP180;48128;54.242;10.280;2022-07-06T06:17:43;101810.00;;;15.10
25514;BMP180;48128;54.242;10.280;2022-07-06T06:20:12;101811.00;;;15.20
25514;BMP180;48128;54.242;10.280;2022-07-06T06:22:54;101830.00;;;15.20
25514;BMP180;48128;54.242;10.280;2022-07-06T06:27:59;101820.00;;;15.40
25514;BMP180;48128;54.242;10.280;2022-07-06T06:30:27;101829.00;;;15.40
25514;BMP180;48128;54.242;10.280;2022-07-06T06:33:19;101820.00;;;15.50
25514;BMP180;48128;54.242;10.280;2022-07-06T06:35:52;101823.00;;;15.50
25514;BMP180;48128;54.242;10.280;2022-07-06T06:38:20;101835.00;;;15.50
25514;BMP180;48128;54.242;10.280;2022-07-06T06:40:48;101832.00;;;15.60
25514;BMP180;48128;54.242;10.280;2022-07-06T06:43:15;101826.00;;;15.60
25514;BMP180;48128;54.242;10.280;2022-07-06T06:45:42;101835.00;;;15.70
25514;BMP180;48128;54.242;10.280;2022-07-06T06:48:09;101838.00;;;15.70
25514;BMP180;48128;54.242;10.280;2022-07-06T06:50:44;101859.00;;;15.80
25514;BMP180;48128;54.242;10.280;2022-07-06T06:53:12;101851.00;;;15.80
25514;BMP180;48128;54.242;10.280;2022-07-06T06:55:39;101838.00;;;15.80
25514;BMP180;48128;54.242;10.280;2022-07-06T06:58:06;101836.00;;;15.80
25514;BMP180;48128;54.242;10.280;2022-07-06T07:00:33;101842.00;;;15.80
25514;BMP180;48128;54.242;10.280;2022-07-06T07:03:00;101845.00;;;15.80
25514;BMP180;48128;54.242;10.280;2022-07-06T07:05:27;101840.00;;;15.70
25514;BMP180;48128;54.242;10.280;2022-07-06T07:07:54;101825.00;;;15.80
25514;BMP180;48128;54.242;10.280;2022-07-06T07:10:31;101838.00;;;15.80
25514;BMP180;48128;54.242;10.280;2022-07-06T07:12:58;101843.00;;;15.90
25514;BMP180;48128;54.242;10.280;2022-07-06T07:15:26;101855.00;;;15.90
25514;BMP180;48128;54.242;10.280;2022-07-06T07:17:53;101842.00;;;16.00
25514;BMP180;48128;54.242;10.280;2022-07-06T07:20:20;101854.00;;;16.10
25514;BMP180;48128;54.242;10.280;2022-07-06T07:22:47;101860.00;;;16.20
25514;BMP180;48128;54.242;10.280;2022-07-06T07:25:14;101880.00;;;16.20
25514;BMP180;48128;54.242;10.280;2022-07-06T07:27:41;101855.00;;;16.20
25514;BMP180;48128;54.242;10.280;2022-07-06T07:30:09;101849.00;;;16.30
25514;BMP180;48128;54.242;10.280;2022-07-06T07:32:36;101857.00;;;16.40
25514;BMP180;48128;54.242;10.280;2022-07-06T07:35:04;101874.00;;;16.40
25514;BMP180;48128;54.242;10.280;2022-07-06T07:37:31;101871.00;;;16.50
25514;BMP180;48128;54.242;10.280;2022-07-06T07:39:59;101881.00;;;16.60
25514;BMP180;48128;54.242;10.280;2022-07-06T07:42:26;101899.00;;;16.70
25514;BMP180;48128;54.242;10.280;2022-07-06T07:44:53;101897.00;;;16.80
25514;BMP180;48128;54.242;10.280;2022-07-06T07:47:20;101889.00;;;16.90
25514;BMP180;48128;54.242;10.280;2022-07-06T07:49:47;101896.00;;;16.90
25514;BMP180;48128;54.242;10.280;2022-07-06T07:52:15;101895.00;;;16.90
25514;BMP180;48128;54.242;10.280;2022-07-06T07:54:42;101885.00;;;16.90
25514;BMP180;48128;54.242;10.280;2022-07-06T07:57:16;101883.00;;;16.90
25514;BMP180;48128;54.242;10.280;2022-07-06T07:59:43;101897.00;;;16.90
25514;BMP180;48128;54.242;10.280;2022-07-06T08:02:10;101891.00;;;16.80
25514;BMP180;48128;54.242;10.280;2022-07-06T08:04:37;101886.00;;;16.70
25514;BMP180;48128;54.242;10.280;2022-07-06T08:07:05;101873.00;;;16.80
25514;BMP180;48128;54.242;10.280;2022-07-06T08:09:33;101906.00;;;17.20
25514;BMP180;48128;54.242;10.280;2022-07-06T08:12:00;101882.00;;;17.50
25514;BMP180;48128;54.242;10.280;2022-07-06T08:14:27;101919.00;;;17.70
25514;BMP180;48128;54.242;10.280;2022-07-06T08:16:54;101893.00;;;17.80
25514;BMP180;48128;54.242;10.280;2022-07-06T08:19:21;101899.00;;;17.80
25514;BMP180;48128;54.242;10.280;2022-07-06T08:21:48;101922.00;;;17.60
25514;BMP180;48128;54.242;10.280;2022-07-06T08:24:15;101878.00;;;17.40
25514;BMP180;48128;54.242;10.280;2022-07-06T08:26:43;101885.00;;;17.30
25514;BMP180;48128;54.242;10.280;2022-07-06T08:29:09;101879.00;;;17.30
25514;BMP180;48128;54.242;10.280;2022-07-06T08:31:37;101884.00;;;17.30
25514;BMP180;48128;54.242;10.280;2022-07-06T08:34:23;101865.00;;;17.20
25514;BMP180;48128;54.242;10.280;2022-07-06T08:36:59;101883.00;;;17.10
25514;BMP180;48128;54.242;10.280;2022-07-06T08:39:26;101883.00;;;17.00
25514;BMP180;48128;54.242;10.280;2022-07-06T08:41:58;101889.00;;;16.90
25514;BMP180;48128;54.242;10.280;2022-07-06T08:44:25;101887.00;;;16.70
25514;BMP180;48128;54.242;10.280;2022-07-06T08:46:58;101892.00;;;16.70
25514;BMP180;48128;54.242;10.280;2022-07-06T08:49:29;101865.00;;;16.60
25514;BMP180;48128;54.242;10.280;2022-07-06T08:51:59;101848.00;;;16.50
25514;BMP180;48128;54.242;10.280;2022-07-06T08:54:27;101840.00;;;16.40
25514;BMP180;48128;54.242;10.280;2022-07-06T08:56:54;101829.00;;;16.50
25514;BMP180;48128;54.242;10.280;2022-07-06T08:59:22;101836.00;;;16.50
25514;BMP180;48128;54.242;10.280;2022-07-06T09:01:49;101839.00;;;16.50
25514;BMP180;48128;54.242;10.280;2022-07-06T09:04:26;101843.00;;;16.60
25514;BMP180;48128;54.242;10.280;2022-07-06T09:07:03;101853.00;;;16.60
25514;BMP180;48128;54.242;10.280;2022-07-06T09:09:31;101851.00;;;16.60
25514;BMP180;48128;54.242;10.280;2022-07-06T09:11:58;101843.00;;;16.70
25514;BMP180;48128;54.242;10.280;2022-07-06T09:14:30;101839.00;;;16.90
25514;BMP180;48128;54.242;10.280;2022-07-06T09:17:05;101859.00;;;17.00
25514;BMP180;48128;54.242;10.280;2022-07-06T09:19:38;101855.00;;;17.20
25514;BMP180;48128;54.242;10.280;2022-07-06T09:22:06;101862.00;;;17.30
25514;BMP180;48128;54.242;10.280;2022-07-06T09:24:33;101859.00;;;17.40
25514;BMP180;48128;54.242;10.280;2022-07-06T09:27:05;101882.00;;;17.50
25514;BMP180;48128;54.242;10.280;2022-07-06T09:29:32;101884.00;;;17.60
25514;BMP180;48128;54.242;10.280;2022-07-06T09:32:01;101894.00;;;17.80
25514;BMP180;48128;54.242;10.280;2022-07-06T09:34:45;101899.00;;;17.80
25514;BMP180;48128;54.242;10.280;2022-07-06T09:37:14;101898.00;;;17.90
25514;BMP180;48128;54.242;10.280;2022-07-06T09:39:43;101896.00;;;18.00
25514;BMP180;48128;54.242;10.280;2022-07-06T09:42:15;101883.00;;;18.50
25514;BMP180;48128;54.242;10.280;2022-07-06T09:44:45;101910.00;;;18.70
25514;BMP180;48128;54.242;10.280;2022-07-06T09:47:17;101894.00;;;18.90
25514;BMP180;48128;54.242;10.280;2022-07-06T09:49:48;101920.00;;;19.10
25514;BMP180;48128;54.242;10.280;2022-07-06T09:52:18;101913.00;;;19.40
25514;BMP180;48128;54.242;10.280;2022-07-06T09:54:49;101931.00;;;19.70
25514;BMP180;48128;54.242;10.280;2022-07-06T09:57:17;101938.00;;;19.70
25514;BMP180;48128;54.242;10.280;2022-07-06T09:59:53;101950.00;;;19.80
25514;BMP180;48128;54.242;10.280;2022-07-06T10:02:20;101942.00;;;19.60
25514;BMP180;48128;54.242;10.280;2022-07-06T10:04:52;101927.00;;;19.50
25514;BMP180;48128;54.242;10.280;2022-07-06T10:07:22;101930.00;;;19.20
25514;BMP180;48128;54.242;10.280;2022-07-06T10:09:52;101915.00;;;19.00
25514;BMP180;48128;54.242;10.280;2022-07-06T10:12:19;101897.00;;;18.90
25514;BMP180;48128;54.242;10.280;2022-07-06T10:14:48;101901.00;;;18.90
25514;BMP180;48128;54.242;10.280;2022-07-06T10:17:21;101902.00;;;19.00
25514;BMP180;48128;54.242;10.280;2022-07-06T10:19:54;101891.00;;;19.00
25514;BMP180;48128;54.242;10.280;2022-07-06T10:22:22;101896.00;;;19.20
25514;BMP180;48128;54.242;10.280;2022-07-06T10:24:49;101895.00;;;19.40
25514;BMP180;48128;54.242;10.280;2022-07-06T10:27:17;101898.00;;;19.50
25514;BMP180;48128;54.242;10.280;2022-07-06T10:29:44;101910.00;;;19.50
25514;BMP180;48128;54.242;10.280;2022-07-06T10:32:11;101908.00;;;19.40
25514;BMP180;48128;54.242;10.280;2022-07-06T10:34:38;101898.00;;;19.40
25514;BMP180;48128;54.242;10.280;2022-07-06T10:37:05;101892.00;;;19.40
25514;BMP180;48128;54.242;10.280;2022-07-06T10:39:38;101891.00;;;19.40
25514;BMP180;48128;54.242;10.280;2022-07-06T10:43:02;101907.00;;;19.20
25514;BMP180;48128;54.242;10.280;2022-07-06T10:50:54;101889.00;;;18.30
25514;BMP180;48128;54.242;10.280;2022-07-06T10:53:27;101882.00;;;18.10
25514;BMP180;48128;54.242;10.280;2022-07-06T10:55:56;101875.00;;;17.90
25514;BMP180;48128;54.242;10.280;2022-07-06T10:58:47;101871.00;;;17.90
25514;BMP180;48128;54.242;10.280;2022-07-06T11:01:15;101870.00;;;18.00
25514;BMP180;48128;54.242;10.280;2022-07-06T11:04:04;101854.00;;;18.20
25514;BMP180;48128;54.242;10.280;2022-07-06T11:06:38;101850.00;;;18.30
25514;BMP180;48128;54.242;10.280;2022-07-06T11:09:09;101855.00;;;18.40
25514;BMP180;48128;54.242;10.280;2022-07-06T11:14:16;101862.00;;;18.60
25514;BMP180;48128;54.242;10.280;2022-07-06T11:19:22;101883.00;;;18.80
25514;BMP180;48128;54.242;10.280;2022-07-06T11:21:57;101893.00;;;19.00
25514;BMP180;48128;54.242;10.280;2022-07-06T11:24:27;101887.00;;;19.40
25514;BMP180;48128;54.242;10.280;2022-07-06T11:26:56;101901.00;;;19.80
25514;BMP180;48128;54.242;10.280;2022-07-06T11:29:26;101893.00;;;20.00
25514;BMP180;48128;54.242;10.280;2022-07-06T11:32:00;101885.00;;;20.60
25514;BMP180;48128;54.242;10.280;2022-07-06T11:34:40;101875.00;;;21.10
25514;BMP180;48128;54.242;10.280;2022-07-06T11:37:10;101904.00;;;21.00
25514;BMP180;48128;54.242;10.280;2022-07-06T11:39:41;101893.00;;;20.50
25514;BMP180;48128;54.242;10.280;2022-07-06T11:42:10;101876.00;;;20.20
25514;BMP180;48128;54.242;10.280;2022-07-06T11:44:39;101881.00;;;19.90
25514;BMP180;48128;54.242;10.280;2022-07-06T11:47:08;101871.00;;;19.50
25514;BMP180;48128;54.242;10.280;2022-07-06T11:49:38;101864.00;;;19.40
25514;BMP180;48128;54.242;10.280;2022-07-06T11:52:11;101856.00;;;20.00
25514;BMP180;48128;54.242;10.280;2022-07-06T11:54:39;101893.00;;;20.10
25514;BMP180;48128;54.242;10.280;2022-07-06T11:57:11;101888.00;;;19.80
25514;BMP180;48128;54.242;10.280;2022-07-06T11:59:40;101879.00;;;19.30
25514;BMP180;48128;54.242;10.280;2022-07-06T12:02:11;101883.00;;;18.90
25514;BMP180;48128;54.242;10.280;2022-07-06T12:04:43;101873.00;;;18.60
25514;BMP180;48128;54.242;10.280;2022-07-06T12:07:16;101862.00;;;18.30
25514;BMP180;48128;54.242;10.280;2022-07-06T12:09:46;101853.00;;;18.20
25514;BMP180;48128;54.242;10.280;2022-07-06T12:12:14;101848.00;;;18.10
25514;BMP180;48128;54.242;10.280;2022-07-06T12:14:45;101825.00;;;18.10
25514;BMP180;48128;54.242;10.280;2022-07-06T12:17:15;101838.00;;;18.20
25514;BMP180;48128;54.242;10.280;2022-07-06T12:19:43;101829.00;;;18.30
25514;BMP180;48128;54.242;10.280;2022-07-06T12:22:11;101847.00;;;18.50
25514;BMP180;48128;54.242;10.280;2022-07-06T12:24:43;101846.00;;;18.70
25514;BMP180;48128;54.242;10.280;2022-07-06T12:27:19;101845.00;;;19.00
25514;BMP180;48128;54.242;10.280;2022-07-06T12:29:48;101849.00;;;19.20
25514;BMP180;48128;54.242;10.280;2022-07-06T12:32:20;101855.00;;;19.30
25514;BMP180;48128;54.242;10.280;2022-07-06T12:35:09;101859.00;;;19.50
25514;BMP180;48128;54.242;10.280;2022-07-06T12:37:38;101872.00;;;19.50
25514;BMP180;48128;54.242;10.280;2022-07-06T12:40:13;101870.00;;;19.60
25514;BMP180;48128;54.242;10.280;2022-07-06T12:42:50;101869.00;;;19.90
25514;BMP180;48128;54.242;10.280;2022-07-06T12:45:18;101861.00;;;20.10
25514;BMP180;48128;54.242;10.280;2022-07-06T12:48:04;101884.00;;;20.20
25514;BMP180;48128;54.242;10.280;2022-07-06T12:50:36;101891.00;;;20.20
25514;BMP180;48128;54.242;10.280;2022-07-06T12:53:23;101875.00;;;20.20
25514;BMP180;48128;54.242;10.280;2022-07-06T12:56:12;101839.00;;;20.10
25514;BMP180;48128;54.242;10.280;2022-07-06T12:58:54;101848.00;;;20.20
25514;BMP180;48128;54.242;10.280;2022-07-06T13:01:21;101851.00;;;20.00
25514;BMP180;48128;54.242;10.280;2022-07-06T13:03:55;101830.00;;;19.70
25514;BMP180;48128;54.242;10.280;2022-07-06T13:06:50;101847.00;;;19.40
25514;BMP180;48128;54.242;10.280;2022-07-06T13:09:19;101823.00;;;19.30
25514;BMP180;48128;54.242;10.280;2022-07-06T13:11:49;101818.00;;;19.60
25514;BMP180;48128;54.242;10.280;2022-07-06T13:14:19;101823.00;;;19.60
25514;BMP180;48128;54.242;10.280;2022-07-06T13:16:53;101851.00;;;19.40
25514;BMP180;48128;54.242;10.280;2022-07-06T13:19:35;101820.00;;;19.30
25514;BMP180;48128;54.242;10.280;2022-07-06T13:22:06;101823.00;;;19.10
25514;BMP180;48128;54.242;10.280;2022-07-06T13:24:33;101814.00;;;19.20
25514;BMP180;48128;54.242;10.280;2022-07-06T13:27:11;101805.00;;;19.30
25514;BMP180;48128;54.242;10.280;2022-07-06T13:29:47;101819.00;;;19.30
25514;BMP180;48128;54.242;10.280;2022-07-06T13:32:27;101818.00;;;19.70
25514;BMP180;48128;54.242;10.280;2022-07-06T13:34:55;101835.00;;;20.10
25514;BMP180;48128;54.242;10.280;2022-07-06T13:37:24;101834.00;;;20.40
25514;BMP180;48128;54.242;10.280;2022-07-06T13:39:54;101834.00;;;20.50
25514;BMP180;48128;54.242;10.280;2022-07-06T13:42:25;101847.00;;;20.50
25514;BMP180;48128;54.242;10.280;2022-07-06T13:44:53;101854.00;;;20.20
25514;BMP180;48128;54.242;10.280;2022-07-06T13:47:22;101844.00;;;20.00
25514;BMP180;48128;54.242;10.280;2022-07-06T13:49:50;101833.00;;;20.10
25514;BMP180;48128;54.242;10.280;2022-07-06T13:52:24;101828.00;;;20.20
25514;BMP180;48128;54.242;10.280;2022-07-06T13:54:51;101822.00;;;20.10
25514;BMP180;48128;54.242;10.280;2022-07-06T13:57:27;101832.00;;;20.20
25514;BMP180;48128;54.242;10.280;2022-07-06T13:59:57;101828.00;;;20.60
25514;BMP180;48128;54.242;10.280;2022-07-06T14:02:34;101841.00;;;20.80
25514;BMP180;48128;54.242;10.280;2022-07-06T14:05:02;101813.00;;;21.00
25514;BMP180;48128;54.242;10.280;2022-07-06T14:07:29;101833.00;;;21.20
25514;BMP180;48128;54.242;10.280;2022-07-06T14:09:56;101836.00;;;21.40